Time;durP1;ratioP1;P1;durP2;ratioP2;P2;SDS_P1;SDS_P2;PMS_P1;PMS_P2;Temp;Humidity;BMP_temperature;BMP_pressure;BME280_temperature;BME280_humidity;BME280_pressure;Samples;Min_cycle;Max_cycle;Signal;HPM_P1;HPM_P2
2023/03/21 00:00:18;;;;;;;1999.90;999.90;;;9.10;99.90;;;;;;5062552;28;20531;-70
2023/03/21 00:02:43;;;;;;;1999.90;999.90;;;9.10;99.90;;;;;;5049799;28;20090;-69
2023/03/21 00:05:09;;;;;;;1999.90;999.90;;;9.20;99.90;;;;;;5050232;28;20525;-70
2023/03/21 00:07:34;;;;;;;1999.90;999.90;;;9.10;99.90;;;;;;5067018;28;20040;-69
2023/03/21 00:10:00;;;;;;;1999.90;999.90;;;9.10;99.90;;;;;;5066934;28;20058;-70
2023/03/21 00:12:26;;;;;;;1999.90;999.90;;;9.10;99.90;;;;;;5066129;28;20037;-70
2023/03/21 00:14:52;;;;;;;1999.90;999.90;;;9.20;99.90;;;;;;5049413;28;20723;-69
2023/03/21 00:17:21;;;;;;;1999.90;999.90;;;9.20;99.90;;;;;;5066040;28;20044;-70
2023/03/21 00:19:47;;;;;;;1999.90;999.90;;;9.20;99.90;;;;;;5067383;28;20048;-69
2023/03/21 00:22:13;;;;;;;1999.90;999.90;;;9.20;99.90;;;;;;5051954;28;20049;-69
2023/03/21 00:24:39;;;;;;;1999.90;999.90;;;9.20;99.90;;;;;;5064196;28;20052;-70
2023/03/21 00:27:05;;;;;;;1999.90;999.90;;;9.20;99.90;;;;;;5069433;28;20121;-69
2023/03/21 00:29:30;;;;;;;1999.90;999.90;;;9.20;99.90;;;;;;5062911;28;20064;-70
2023/03/21 00:31:56;;;;;;;1999.90;999.90;;;9.20;99.90;;;;;;5066807;28;20446;-69
2023/03/21 00:34:21;;;;;;;1999.90;999.90;;;9.20;99.90;;;;;;5049736;28;20040;-69
2023/03/21 00:36:47;;;;;;;1999.90;999.90;;;9.20;99.90;;;;;;5064605;28;20037;-69
2023/03/21 00:39:13;;;;;;;1999.90;999.90;;;9.20;99.90;;;;;;5066830;28;20066;-69
2023/03/21 00:41:38;;;;;;;1999.90;999.90;;;9.20;99.90;;;;;;5064370;28;20048;-70
2023/03/21 00:44:04;;;;;;;1999.90;999.90;;;9.20;99.90;;;;;;5066388;28;20060;-70
2023/03/21 00:46:30;;;;;;;1999.90;999.90;;;9.20;99.90;;;;;;5081618;28;20029;-70
2023/03/21 00:48:55;;;;;;;1999.90;999.90;;;9.20;99.90;;;;;;5048227;28;20040;-70
2023/03/21 00:51:25;;;;;;;1999.90;999.90;;;9.20;99.90;;;;;;5047546;28;20044;-70
2023/03/21 00:53:55;;;;;;;1999.90;999.90;;;9.20;99.90;;;;;;5064582;28;20520;-71
2023/03/21 00:56:21;;;;;;;1999.90;999.90;;;9.20;99.90;;;;;;5049665;28;20083;-70
2023/03/21 00:58:47;;;;;;;1999.90;999.90;;;9.20;99.90;;;;;;5064659;28;20601;-70
2023/03/21 01:01:13;;;;;;;1999.90;999.90;;;9.20;99.90;;;;;;5061700;28;20036;-70
2023/03/21 01:03:41;;;;;;;1999.90;999.90;;;9.20;99.90;;;;;;5049424;28;20503;-70
2023/03/21 01:06:12;;;;;;;1999.90;999.90;;;9.20;99.90;;;;;;5064982;28;20047;-70
2023/03/21 01:08:42;;;;;;;1999.90;999.90;;;9.20;99.90;;;;;;5066941;28;20037;-71
2023/03/21 01:11:12;;;;;;;1999.90;999.90;;;9.20;99.90;;;;;;5066013;28;20042;-70
2023/03/21 01:13:37;;;;;;;1999.90;999.90;;;9.20;99.90;;;;;;5049447;28;20067;-71
2023/03/21 01:16:05;;;;;;;1999.90;999.90;;;9.20;99.90;;;;;;5064126;28;20568;-71
2023/03/21 01:18:31;;;;;;;1999.90;999.90;;;9.20;99.90;;;;;;5061729;28;20033;-71
2023/03/21 01:20:59;;;;;;;1999.90;999.90;;;9.20;99.90;;;;;;5064395;28;20045;-71
2023/03/21 01:23:26;;;;;;;1999.90;999.90;;;9.20;99.90;;;;;;5065436;28;20051;-70
2023/03/21 01:25:53;;;;;;;1999.90;999.90;;;9.20;99.90;;;;;;5062152;28;20033;-70
2023/03/21 01:28:19;;;;;;;1999.90;999.90;;;9.20;99.90;;;;;;5062701;28;20082;-70
2023/03/21 01:30:49;;;;;;;1999.90;999.90;;;9.20;99.90;;;;;;5064848;28;20036;-70
2023/03/21 01:33:16;;;;;;;1999.90;999.90;;;9.20;99.90;;;;;;5066489;28;20052;-70
2023/03/21 01:35:42;;;;;;;1999.90;999.90;;;9.20;99.90;;;;;;5048323;28;20409;-70
2023/03/21 01:38:08;;;;;;;1999.90;999.90;;;9.20;99.90;;;;;;5049469;28;20036;-70
2023/03/21 01:40:35;;;;;;;1999.90;999.90;;;9.20;99.90;;;;;;5064135;28;20117;-70
2023/03/21 01:43:01;;;;;;;1999.90;999.90;;;9.20;99.90;;;;;;5049211;28;20182;-70
2023/03/21 01:46:04;;;;;;;1999.90;999.90;;;9.20;99.90;;;;;;5081353;28;20073;-70
2023/03/21 01:48:31;;;;;;;1999.90;999.90;;;9.20;99.90;;;;;;5063952;28;20123;-70
2023/03/21 01:50:57;;;;;;;1999.90;999.90;;;9.20;99.90;;;;;;5047874;28;20072;-70
2023/03/21 01:53:28;;;;;;;1999.90;999.90;;;9.20;99.90;;;;;;5064438;28;20032;-71
2023/03/21 01:55:57;;;;;;;1999.90;999.90;;;9.30;99.90;;;;;;5064458;28;20055;-70
2023/03/21 01:58:23;;;;;;;1999.90;999.90;;;9.20;99.90;;;;;;5065111;28;20072;-70
2023/03/21 02:00:50;;;;;;;1999.90;999.90;;;9.20;99.90;;;;;;5064846;28;20044;-70
2023/03/21 02:03:17;;;;;;;1999.90;999.90;;;9.30;99.90;;;;;;5048949;28;20041;-71
2023/03/21 02:06:00;;;;;;;1999.90;999.90;;;9.30;99.90;;;;;;5048263;28;20086;-70
2023/03/21 02:08:28;;;;;;;1999.90;999.90;;;9.30;99.90;;;;;;5065987;28;20097;-71
2023/03/21 02:10:54;;;;;;;1999.90;999.90;;;9.30;99.90;;;;;;5049277;28;20040;-70
2023/03/21 02:13:20;;;;;;;1999.90;999.90;;;9.30;99.90;;;;;;5067925;28;20090;-71
2023/03/21 02:15:58;;;;;;;1999.90;999.90;;;9.20;99.90;;;;;;5063867;28;20492;-70
2023/03/21 02:18:30;;;;;;;1999.90;999.90;;;9.30;99.90;;;;;;5047423;28;20040;-70
2023/03/21 02:21:07;;;;;;;1999.90;999.90;;;9.30;99.90;;;;;;5048315;28;20060;-70
2023/03/21 02:23:46;;;;;;;1999.90;999.90;;;9.30;99.90;;;;;;5079449;28;20397;-70
2023/03/21 02:26:34;;;;;;;1999.90;999.90;;;9.30;99.90;;;;;;5045103;28;20048;-70
2023/03/21 02:29:15;;;;;;;1999.90;999.90;;;9.30;99.90;;;;;;5063032;28;20044;-70
2023/03/21 02:32:12;;;;;;;1999.90;999.90;;;9.30;99.90;;;;;;5063661;28;20055;-70
2023/03/21 02:35:20;;;;;;;1999.90;999.90;;;9.30;99.90;;;;;;5059525;28;20040;-70
2023/03/21 02:38:02;;;;;;;1999.90;999.90;;;9.30;99.90;;;;;;4989886;28;20041;-70
2023/03/21 02:40:43;;;;;;;1999.90;999.90;;;9.30;99.90;;;;;;4991150;28;20501;-70
2023/03/21 02:43:29;;;;;;;1999.90;999.90;;;9.30;99.90;;;;;;5005833;28;20219;-70
2023/03/21 02:46:05;;;;;;;1999.90;999.90;;;9.30;99.90;;;;;;5020174;28;20140;-70
2023/03/21 02:48:38;;;;;;;1999.90;999.90;;;9.30;99.90;;;;;;4984166;28;20044;-70
2023/03/21 02:51:04;;;;;;;1999.90;999.90;;;9.40;99.90;;;;;;5006795;28;20596;-70
2023/03/21 02:53:37;;;;;;;1999.90;999.90;;;9.30;99.90;;;;;;5005965;28;20137;-71
2023/03/21 02:56:09;;;;;;;1999.90;999.90;;;9.30;99.90;;;;;;5003731;28;20427;-71
2023/03/21 02:58:36;;;;;;;1999.90;999.90;;;9.30;99.90;;;;;;5006525;28;20244;-70
2023/03/21 03:01:02;;;;;;;1999.90;999.90;;;9.30;99.90;;;;;;4989468;28;20120;-71
2023/03/21 03:03:27;;;;;;;1999.90;999.90;;;9.40;99.90;;;;;;5003808;28;20399;-70
2023/03/21 03:05:56;;;;;;;1999.90;999.90;;;9.40;99.90;;;;;;5004039;28;20051;-70
2023/03/21 03:08:36;;;;;;;1999.90;999.90;;;9.30;99.90;;;;;;5004359;28;20472;-70
2023/03/21 03:11:27;;;;;;;1999.90;999.90;;;9.40;99.90;;;;;;5014074;28;20098;-70
2023/03/21 03:14:04;;;;;;;1999.90;999.90;;;9.40;99.90;;;;;;5062378;28;20048;-71
2023/03/21 03:17:04;;;;;;;1999.90;999.90;;;9.40;99.90;;;;;;5063522;28;20044;-70
2023/03/21 03:19:34;;;;;;;1999.90;999.90;;;9.40;99.90;;;;;;5062995;28;20500;-70
2023/03/21 03:22:01;;;;;;;1999.90;999.90;;;9.40;99.90;;;;;;5063116;28;20071;-70
2023/03/21 03:24:35;;;;;;;1999.90;999.90;;;9.40;99.90;;;;;;5046878;28;20028;-71
2023/03/21 03:27:06;;;;;;;1999.90;999.90;;;9.40;99.90;;;;;;5043928;28;20579;-71
2023/03/21 03:29:36;;;;;;;1999.90;999.90;;;9.40;99.90;;;;;;5077686;28;20044;-71
2023/03/21 03:32:43;;;;;;;1999.90;999.90;;;9.40;99.90;;;;;;5061151;28;20067;-70
2023/03/21 03:35:12;;;;;;;1999.90;999.90;;;9.40;99.90;;;;;;5062998;28;20080;-71
2023/03/21 03:37:40;;;;;;;1999.90;999.90;;;9.40;99.90;;;;;;5043540;28;20048;-71
2023/03/21 03:40:17;;;;;;;1999.90;999.90;;;9.40;99.90;;;;;;5047003;28;20044;-71
2023/03/21 03:42:55;;;;;;;1999.90;999.90;;;9.40;99.90;;;;;;5063042;28;20071;-71
2023/03/21 03:45:27;;;;;;;1999.90;999.90;;;9.40;99.90;;;;;;5046345;28;20078;-72
2023/03/21 03:48:14;;;;;;;1999.90;999.90;;;9.40;99.90;;;;;;5062490;28;20055;-71
2023/03/21 03:50:52;;;;;;;1999.90;999.90;;;9.40;99.90;;;;;;5084722;28;20040;-70
2023/03/21 03:53:20;;;;;;;1999.90;999.90;;;9.40;99.90;;;;;;5066025;28;20036;-70
2023/03/21 03:55:48;;;;;;;1999.90;999.90;;;9.40;99.90;;;;;;5064512;28;20071;-71
2023/03/21 03:58:20;;;;;;;1999.90;999.90;;;9.40;99.90;;;;;;5067076;28;20036;-71
2023/03/21 04:00:48;;;;;;;1999.90;999.90;;;9.40;99.90;;;;;;5061130;28;20064;-70
2023/03/21 04:03:14;;;;;;;1999.90;999.90;;;9.40;99.90;;;;;;5068077;28;20044;-71
2023/03/21 04:05:41;;;;;;;1999.90;999.90;;;9.40;99.90;;;;;;5064759;28;20044;-71
2023/03/21 04:08:10;;;;;;;1999.90;999.90;;;9.40;99.90;;;;;;5067613;28;20114;-71
2023/03/21 04:10:35;;;;;;;1999.90;999.90;;;9.40;99.90;;;;;;5067677;28;20501;-72
2023/03/21 04:13:01;;;;;;;1999.90;999.90;;;9.40;99.90;;;;;;5068100;28;20032;-71
2023/03/21 04:15:27;;;;;;;1999.90;999.90;;;9.40;99.90;;;;;;5065049;28;20047;-71
2023/03/21 04:17:52;;;;;;;1999.90;999.90;;;9.40;99.90;;;;;;5067545;28;20044;-71
2023/03/21 04:20:18;;;;;;;1999.90;999.90;;;9.40;99.90;;;;;;5051441;28;20555;-70
2023/03/21 04:22:44;;;;;;;1999.90;999.90;;;9.40;99.90;;;;;;5066013;28;20052;-70
2023/03/21 04:25:10;;;;;;;1999.90;999.90;;;9.40;99.90;;;;;;5068172;28;20044;-70
2023/03/21 04:27:36;;;;;;;1999.90;999.90;;;9.40;99.90;;;;;;5065032;28;20059;-71
2023/03/21 04:30:04;;;;;;;1999.90;999.90;;;9.40;99.90;;;;;;5051161;28;20032;-70
2023/03/21 04:32:32;;;;;;;1999.90;999.90;;;9.40;99.90;;;;;;5067083;28;20048;-70
2023/03/21 04:34:59;;;;;;;1999.90;999.90;;;9.40;99.90;;;;;;5064747;28;20408;-70
2023/03/21 04:37:26;;;;;;;1999.90;999.90;;;9.40;99.90;;;;;;5066810;28;20037;-71
2023/03/21 04:39:52;;;;;;;1999.90;999.90;;;9.40;99.90;;;;;;5066681;28;20051;-70
2023/03/21 04:42:18;;;;;;;1999.90;999.90;;;9.40;99.90;;;;;;5061632;28;20461;-70
2023/03/21 04:44:45;;;;;;;1999.90;999.90;;;9.40;99.90;;;;;;5048317;28;20131;-70
2023/03/21 04:47:12;;;;;;;1999.90;999.90;;;9.40;99.90;;;;;;5064376;28;20450;-70
2023/03/21 04:49:37;;;;;;;1999.90;999.90;;;9.40;99.90;;;;;;5067194;28;20155;-70
2023/03/21 04:52:04;;;;;;;1999.90;999.90;;;9.40;99.90;;;;;;5067822;28;20123;-71
2023/03/21 04:54:31;;;;;;;1999.90;999.90;;;9.40;99.90;;;;;;5069176;28;20119;-71
2023/03/21 04:56:57;;;;;;;1999.90;999.90;;;9.40;99.90;;;;;;5065163;28;20043;-70
2023/03/21 04:59:22;;;;;;;1999.90;999.90;;;9.40;99.90;;;;;;5068377;28;20112;-70
2023/03/21 05:01:48;;;;;;;1999.90;999.90;;;9.30;99.90;;;;;;5048693;28;20144;-70
2023/03/21 05:04:15;;;;;;;1999.90;999.90;;;9.40;99.90;;;;;;5065545;28;20048;-70
2023/03/21 05:06:41;;;;;;;1999.90;999.90;;;9.40;99.90;;;;;;5063148;28;20047;-70
2023/03/21 05:09:07;;;;;;;1999.90;999.90;;;9.40;99.90;;;;;;5066764;28;20397;-70
2023/03/21 05:11:36;;;;;;;1999.90;999.90;;;9.40;99.90;;;;;;5065100;28;20090;-70
2023/03/21 05:14:06;;;;;;;1999.90;999.90;;;9.40;99.90;;;;;;5067092;28;20036;-70
2023/03/21 05:16:33;;;;;;;1999.90;999.90;;;9.40;99.90;;;;;;5049301;28;20052;-70
2023/03/21 05:19:03;;;;;;;1999.90;999.90;;;9.40;99.90;;;;;;5064612;28;20091;-70
2023/03/21 05:21:32;;;;;;;1999.90;999.90;;;9.40;99.90;;;;;;5067337;28;20053;-70
2023/03/21 05:24:02;;;;;;;1999.90;999.90;;;9.40;99.90;;;;;;5064865;28;20181;-70
2023/03/21 05:26:28;;;;;;;1999.90;999.90;;;9.40;99.90;;;;;;5063856;28;20048;-70
2023/03/21 05:28:54;;;;;;;1999.90;999.90;;;9.40;99.90;;;;;;5066226;28;20040;-70
2023/03/21 05:31:20;;;;;;;1999.90;999.90;;;9.40;99.90;;;;;;5062182;28;20480;-70
2023/03/21 05:33:47;;;;;;;1999.90;999.90;;;9.40;99.90;;;;;;5046032;28;20048;-70
2023/03/21 05:36:14;;;;;;;1999.90;999.90;;;9.40;99.90;;;;;;5066527;28;20155;-70
2023/03/21 05:38:44;;;;;;;1999.90;999.90;;;9.40;99.90;;;;;;5064597;28;20466;-70
2023/03/21 05:41:11;;;;;;;1999.90;999.90;;;9.40;99.90;;;;;;5065747;28;20051;-69
2023/03/21 05:43:36;;;;;;;1999.90;999.90;;;9.40;99.90;;;;;;5059853;28;20049;-69
2023/03/21 05:46:02;;;;;;;1999.90;999.90;;;9.40;99.90;;;;;;5067206;28;20411;-69
2023/03/21 05:48:28;;;;;;;1999.90;999.90;;;9.40;99.90;;;;;;5064169;28;20036;-70
2023/03/21 05:50:53;;;;;;;1999.90;999.90;;;9.40;99.90;;;;;;5078066;28;20455;-69
2023/03/21 05:53:19;;;;;;;1999.90;999.90;;;9.40;99.90;;;;;;5046969;28;20427;-70
2023/03/21 05:55:45;;;;;;;1999.90;999.90;;;9.40;99.90;;;;;;5064290;28;20044;-70
2023/03/21 05:58:11;;;;;;;1999.90;999.90;;;9.40;99.90;;;;;;5066532;28;20388;-69
2023/03/21 06:00:37;;;;;;;1999.90;999.90;;;9.40;99.90;;;;;;5064490;28;21086;-70
2023/03/21 06:03:02;;;;;;;1999.90;999.90;;;9.40;99.90;;;;;;5066598;28;20045;-70
2023/03/21 06:05:28;;;;;;;1999.90;999.90;;;9.40;99.90;;;;;;5065367;28;20055;-70
2023/03/21 06:07:54;;;;;;;1999.90;999.90;;;9.40;99.90;;;;;;5065437;28;20043;-70
2023/03/21 06:10:20;;;;;;;1999.90;999.90;;;9.40;99.90;;;;;;5048447;28;20036;-70
2023/03/21 06:12:45;;;;;;;1999.90;999.90;;;9.40;99.90;;;;;;5064729;28;20430;-69
2023/03/21 06:15:11;;;;;;;1999.90;999.90;;;9.50;99.90;;;;;;5046606;28;20097;-70
2023/03/21 06:17:37;;;;;;;1999.90;999.90;;;9.50;99.90;;;;;;5046368;28;20037;-70
2023/03/21 06:20:04;;;;;;;1999.90;999.90;;;9.40;99.90;;;;;;5045476;28;20064;-69
2023/03/21 06:22:30;;;;;;;1999.90;999.90;;;9.50;99.90;;;;;;5062795;28;20386;-69
2023/03/21 06:24:56;;;;;;;1999.90;999.90;;;9.50;99.90;;;;;;5062344;28;20040;-69
2023/03/21 06:27:21;;;;;;;1999.90;999.90;;;9.50;99.90;;;;;;5065740;28;20047;-70
2023/03/21 06:29:47;;;;;;;1999.90;999.90;;;9.50;99.90;;;;;;5063375;28;20039;-70
2023/03/21 06:32:13;;;;;;;1999.90;999.90;;;9.50;99.90;;;;;;5065913;28;20131;-70
2023/03/21 06:34:38;;;;;;;1999.90;999.90;;;9.50;99.90;;;;;;5062454;28;20045;-70
2023/03/21 06:37:04;;;;;;;1999.90;999.90;;;9.50;99.90;;;;;;5063826;28;20419;-69
2023/03/21 06:39:31;;;;;;;1999.90;999.90;;;9.50;99.90;;;;;;5065172;28;20135;-70
2023/03/21 06:41:57;;;;;;;1999.90;999.90;;;9.50;99.90;;;;;;5064318;28;20029;-69
2023/03/21 06:44:23;;;;;;;1999.90;999.90;;;9.60;99.90;;;;;;5047259;28;20399;-70
2023/03/21 06:46:50;;;;;;;1999.90;999.90;;;9.60;99.90;;;;;;5064562;28;20629;-70
2023/03/21 06:49:15;;;;;;;1999.90;999.90;;;9.60;99.90;;;;;;5063543;28;20396;-69
2023/03/21 06:51:41;;;;;;;1999.90;999.90;;;9.60;99.90;;;;;;5046206;28;20032;-69
2023/03/21 06:54:07;;;;;;;1999.90;999.90;;;9.60;99.90;;;;;;5063789;28;20581;-69
2023/03/21 06:56:33;;;;;;;1999.90;999.90;;;9.60;99.90;;;;;;5065136;28;20044;-70
2023/03/21 06:58:58;;;;;;;1999.90;999.90;;;9.60;99.90;;;;;;5059727;28;20029;-69
2023/03/21 07:01:26;;;;;;;1999.90;999.90;;;9.70;99.90;;;;;;5035759;28;20041;-70
2023/03/21 07:03:55;;;;;;;1999.90;999.90;;;9.70;99.90;;;;;;5058034;28;20044;-70
2023/03/21 07:06:21;;;;;;;1999.90;999.90;;;9.70;99.90;;;;;;5061656;28;20048;-69
2023/03/21 07:08:46;;;;;;;1999.90;999.90;;;9.70;99.90;;;;;;5057761;28;20032;-70
2023/03/21 07:11:12;;;;;;;1999.90;999.90;;;9.70;99.90;;;;;;5063427;28;20032;-70
2023/03/21 07:13:38;;;;;;;1999.90;999.90;;;9.70;99.90;;;;;;5063328;28;20188;-70
2023/03/21 07:16:04;;;;;;;1999.90;999.90;;;9.70;99.90;;;;;;5061326;28;20044;-70
2023/03/21 07:18:30;;;;;;;1999.90;999.90;;;9.70;99.90;;;;;;5057418;28;20036;-70
2023/03/21 07:20:56;;;;;;;1999.90;999.90;;;9.80;99.90;;;;;;5058675;28;20244;-69
2023/03/21 07:23:24;;;;;;;1999.90;999.90;;;9.80;99.90;;;;;;5077527;28;20090;-69
2023/03/21 07:25:50;;;;;;;1999.90;999.90;;;9.80;99.90;;;;;;5064188;28;20033;-70
2023/03/21 07:28:16;;;;;;;1999.90;999.90;;;9.80;99.90;;;;;;5070016;28;20032;-69
2023/03/21 07:30:43;;;;;;;1999.90;999.90;;;9.80;99.90;;;;;;5081597;28;20094;-70
2023/03/21 07:33:09;;;;;;;1999.90;999.90;;;9.80;99.90;;;;;;5051520;28;20110;-70
2023/03/21 07:35:36;;;;;;;1999.90;999.90;;;9.80;99.90;;;;;;5061454;28;20048;-70
2023/03/21 07:38:05;;;;;;;1999.90;999.90;;;9.80;99.90;;;;;;5041667;28;20097;-70
2023/03/21 07:40:31;;;;;;;1999.90;999.90;;;9.80;99.90;;;;;;5065114;28;20090;-69
2023/03/21 07:42:57;;;;;;;1999.90;999.90;;;9.80;99.90;;;;;;5064665;28;20069;-69
2023/03/21 07:45:24;;;;;;;1999.90;999.90;;;9.80;99.90;;;;;;5063364;28;20083;-70
2023/03/21 07:47:50;;;;;;;1999.90;999.90;;;9.90;99.90;;;;;;5067237;28;20046;-70
2023/03/21 07:50:16;;;;;;;1999.90;999.90;;;9.80;99.90;;;;;;5062298;28;20036;-70
2023/03/21 07:52:42;;;;;;;1999.90;999.90;;;9.90;99.90;;;;;;5071238;28;20044;-70
2023/03/21 07:55:08;;;;;;;1999.90;999.90;;;9.90;99.90;;;;;;5068054;28;20460;-69
2023/03/21 07:57:34;;;;;;;1999.90;999.90;;;9.90;99.90;;;;;;5051133;28;20506;-70
2023/03/21 08:00:00;;;;;;;1999.90;999.90;;;9.90;99.90;;;;;;5067728;28;20044;-70
2023/03/21 08:02:25;;;;;;;1999.90;999.90;;;9.90;99.90;;;;;;5063722;28;20043;-70
2023/03/21 08:04:51;;;;;;;1999.90;999.90;;;9.90;99.90;;;;;;5066835;28;20086;-70
2023/03/21 08:07:17;;;;;;;1999.90;999.90;;;10.00;99.90;;;;;;5044093;28;20106;-70
2023/03/21 08:09:43;;;;;;;1999.90;999.90;;;10.00;99.90;;;;;;5053393;28;20151;-69
2023/03/21 08:12:10;;;;;;;1999.90;999.90;;;9.90;99.90;;;;;;5065142;28;20037;-69
2023/03/21 08:14:35;;;;;;;1999.90;999.90;;;9.90;99.90;;;;;;5065445;28;20052;-70
2023/03/21 08:17:05;;;;;;;1999.90;999.90;;;9.90;99.90;;;;;;5067443;28;20036;-69
2023/03/21 08:19:31;;;;;;;1999.90;999.90;;;9.90;99.90;;;;;;5065482;28;20400;-69
2023/03/21 08:22:01;;;;;;;1999.90;999.90;;;9.90;99.90;;;;;;5063546;28;20527;-69
2023/03/21 08:24:27;;;;;;;1999.90;999.90;;;10.00;99.90;;;;;;5061706;28;20072;-70
2023/03/21 08:26:53;;;;;;;1999.90;999.90;;;9.90;99.90;;;;;;5066386;28;20039;-69
2023/03/21 08:29:20;;;;;;;1999.90;999.90;;;9.90;99.90;;;;;;5050050;28;20025;-70
2023/03/21 08:31:46;;;;;;;1999.90;999.90;;;10.00;99.90;;;;;;5065805;28;20045;-70
2023/03/21 08:34:12;;;;;;;1999.90;999.90;;;10.00;99.90;;;;;;5066252;28;20047;-69
2023/03/21 08:36:38;;;;;;;1999.90;999.90;;;10.00;99.90;;;;;;5063644;28;20175;-69
2023/03/21 08:39:04;;;;;;;1999.90;999.90;;;10.00;99.90;;;;;;5067689;28;20131;-69
2023/03/21 08:41:35;;;;;;;1999.90;999.90;;;10.00;99.90;;;;;;5059793;28;20158;-69
2023/03/21 08:44:01;;;;;;;1999.90;999.90;;;10.00;99.90;;;;;;5048117;28;20037;-69
2023/03/21 08:46:27;;;;;;;1999.90;999.90;;;9.90;99.90;;;;;;5049802;28;20411;-70
2023/03/21 08:48:53;;;;;;;1999.90;999.90;;;9.90;99.90;;;;;;5048203;28;20119;-70
2023/03/21 08:51:19;;;;;;;1999.90;999.90;;;9.90;99.90;;;;;;5049984;28;20044;-69
2023/03/21 08:53:45;;;;;;;1999.90;999.90;;;9.90;99.90;;;;;;5065120;28;20067;-69
2023/03/21 08:56:11;;;;;;;1999.90;999.90;;;9.90;99.90;;;;;;5047067;28;20485;-70
2023/03/21 08:58:37;;;;;;;1999.90;999.90;;;10.00;99.90;;;;;;5057586;28;20071;-69
2023/03/21 09:01:05;;;;;;;1999.90;999.90;;;10.10;99.90;;;;;;5067886;28;20040;-69
2023/03/21 09:03:31;;;;;;;1999.90;999.90;;;10.10;99.90;;;;;;5065275;28;20370;-69
2023/03/21 09:05:57;;;;;;;1999.90;999.90;;;10.10;99.90;;;;;;5066228;28;20061;-69
2023/03/21 09:08:23;;;;;;;1999.90;999.90;;;10.10;99.90;;;;;;5061351;28;20044;-69
2023/03/21 09:10:52;;;;;;;1999.90;999.90;;;10.10;99.90;;;;;;5064449;28;20549;-69
2023/03/21 09:13:18;;;;;;;1999.90;999.90;;;10.00;99.90;;;;;;5064633;28;20036;-69
2023/03/21 09:15:44;;;;;;;1999.90;999.90;;;10.00;99.90;;;;;;5057116;28;20044;-69
2023/03/21 09:18:14;;;;;;;1999.90;999.90;;;10.00;99.90;;;;;;5063239;28;20085;-69
2023/03/21 09:20:42;;;;;;;1999.90;999.90;;;10.00;99.90;;;;;;5048528;28;20386;-69
2023/03/21 09:23:09;;;;;;;1999.90;999.90;;;10.00;99.90;;;;;;5048571;28;20052;-69
2023/03/21 09:25:35;;;;;;;1999.90;999.90;;;10.00;99.90;;;;;;5061060;28;20105;-70
2023/03/21 09:28:03;;;;;;;1999.90;999.90;;;10.00;99.90;;;;;;5045587;28;20576;-70
2023/03/21 09:30:30;;;;;;;1999.90;999.90;;;10.00;99.90;;;;;;5049733;28;20443;-69
2023/03/21 09:32:58;;;;;;;1999.90;999.90;;;10.10;99.90;;;;;;5042184;28;20086;-70
2023/03/21 09:35:25;;;;;;;1999.90;999.90;;;10.10;99.90;;;;;;5064654;28;20045;-70
2023/03/21 09:37:52;;;;;;;1999.90;999.90;;;10.10;99.90;;;;;;5064022;28;20495;-69
2023/03/21 09:40:22;;;;;;;1999.90;999.90;;;10.10;99.90;;;;;;5048226;28;20060;-69
2023/03/21 09:43:14;;;;;;;1999.90;999.90;;;10.10;99.90;;;;;;5065468;28;20040;-70
2023/03/21 09:46:02;;;;;;;1999.90;999.90;;;10.10;99.90;;;;;;5066081;28;20075;-70
2023/03/21 09:48:45;;;;;;;1999.90;999.90;;;10.10;99.90;;;;;;5076847;28;20497;-69
2023/03/21 09:51:16;;;;;;;1999.90;999.90;;;10.00;99.90;;;;;;5063875;28;20063;-70
2023/03/21 09:53:45;;;;;;;1999.90;999.90;;;10.10;99.90;;;;;;5059705;28;20042;-70
2023/03/21 09:56:12;;;;;;;1999.90;999.90;;;10.10;99.90;;;;;;5064519;28;20508;-70
2023/03/21 09:58:51;;;;;;;1999.90;999.90;;;10.10;99.90;;;;;;5048422;28;20079;-70
2023/03/21 10:01:45;;;;;;;1999.90;999.90;;;10.10;99.90;;;;;;5064218;28;20034;-69
2023/03/21 10:04:19;;;;;;;1999.90;999.90;;;10.10;99.90;;;;;;5046723;28;20059;-69
2023/03/21 10:06:52;;;;;;;1999.90;999.90;;;10.10;99.90;;;;;;5057391;28;20055;-70
2023/03/21 10:09:23;;;;;;;1999.90;999.90;;;10.10;99.90;;;;;;5045329;28;20118;-69
2023/03/21 10:12:03;;;;;;;1999.90;999.90;;;10.10;99.90;;;;;;5064440;28;20093;-69
2023/03/21 10:14:33;;;;;;;1999.90;999.90;;;10.10;99.90;;;;;;5063543;28;20036;-70
2023/03/21 10:17:28;;;;;;;1999.90;999.90;;;10.10;99.90;;;;;;5062102;28;20051;-69
2023/03/21 10:20:24;;;;;;;1999.90;999.90;;;10.10;99.90;;;;;;5061793;28;20048;-69
2023/03/21 10:22:54;;;;;;;1999.90;999.90;;;10.10;99.90;;;;;;5047571;28;20795;-70
2023/03/21 10:25:50;;;;;;;1999.90;999.90;;;10.10;99.90;;;;;;5057138;28;20460;-70
2023/03/21 10:28:25;;;;;;;1999.90;999.90;;;10.10;99.90;;;;;;5064222;28;20080;-70
2023/03/21 10:30:54;;;;;;;1999.90;999.90;;;10.10;99.90;;;;;;5064971;28;20485;-70
2023/03/21 10:33:25;;;;;;;1999.90;999.90;;;10.20;99.90;;;;;;5065172;28;20151;-70
2023/03/21 10:35:58;;;;;;;1999.90;999.90;;;10.30;99.90;;;;;;5054845;28;20459;-69
2023/03/21 10:38:25;;;;;;;1999.90;999.90;;;10.40;99.90;;;;;;5045357;28;20051;-70
2023/03/21 10:40:52;;;;;;;1999.90;999.90;;;10.50;99.90;;;;;;5063049;28;20128;-70
2023/03/21 10:43:26;;;;;;;1999.90;999.90;;;10.50;99.90;;;;;;5064557;28;20119;-70
2023/03/21 10:45:52;;;;;;;;;;;10.60;99.90;;;;;;5047079;28;20459;-70
2023/03/21 10:48:18;;;;;;;1999.90;999.90;;;10.60;99.90;;;;;;5049637;28;19917;-70
2023/03/21 10:50:47;;;;;;;1999.90;999.90;;;10.70;99.90;;;;;;5043102;28;20516;-70
2023/03/21 10:53:20;;;;;;;1999.90;999.90;;;10.80;99.90;;;;;;5057674;28;20350;-70
2023/03/21 10:55:50;;;;;;;1999.90;999.90;;;10.90;99.90;;;;;;5062928;28;20040;-70
2023/03/21 10:58:26;;;;;;;1999.90;999.90;;;10.90;99.90;;;;;;5046162;28;20380;-70
2023/03/21 11:01:29;;;;;;;1999.90;999.90;;;11.10;99.90;;;;;;5064577;28;20098;-70
2023/03/21 11:03:57;;;;;;;1999.90;999.90;;;11.20;99.90;;;;;;5024048;28;20134;-70
2023/03/21 11:06:29;;;;;;;1999.90;999.90;;;11.20;99.90;;;;;;5063486;28;20431;-70
2023/03/21 11:09:01;;;;;;;1999.90;999.90;;;11.30;99.90;;;;;;5061430;28;20051;-71
2023/03/21 11:11:33;;;;;;;1999.90;999.90;;;11.30;99.90;;;;;;5053722;28;20040;-69
2023/03/21 11:14:05;;;;;;;1999.90;999.90;;;11.40;99.90;;;;;;5061368;28;20067;-71
2023/03/21 11:16:35;;;;;;;1999.90;999.90;;;11.50;99.90;;;;;;5049176;28;20072;-71
2023/03/21 11:19:11;;;;;;;1999.90;999.90;;;11.50;99.90;;;;;;5057193;28;20040;-71
2023/03/21 11:21:37;;;;;;;1999.90;999.90;;;11.60;99.90;;;;;;5053142;28;20052;-71
2023/03/21 11:24:05;;;;;;;1999.90;999.90;;;11.60;99.90;;;;;;5047055;28;20473;-70
2023/03/21 11:26:35;;;;;;;1999.90;999.90;;;11.60;99.90;;;;;;5060698;28;20064;-71
2023/03/21 11:29:21;;;;;;;1999.90;999.90;;;11.60;99.90;;;;;;5059853;28;20079;-70
2023/03/21 11:31:47;;;;;;;1999.90;999.90;;;11.60;99.90;;;;;;5050599;28;20099;-71
2023/03/21 11:34:25;;;;;;;1999.90;999.90;;;11.60;99.90;;;;;;5059891;28;20045;-70
2023/03/21 11:36:56;;;;;;;1999.90;999.90;;;11.70;99.90;;;;;;5060063;28;20036;-71
2023/03/21 11:39:38;;;;;;;1999.90;999.90;;;11.70;99.90;;;;;;5057667;28;20119;-71
2023/03/21 11:42:23;;;;;;;1999.90;999.90;;;11.70;99.90;;;;;;5061361;28;20059;-70
2023/03/21 11:44:56;;;;;;;1999.90;999.90;;;11.70;99.90;;;;;;5062492;28;20043;-70
2023/03/21 11:47:21;;;;;;;1999.90;999.90;;;11.80;99.90;;;;;;5059676;28;20037;-71
2023/03/21 11:49:47;;;;;;;1999.90;999.90;;;11.90;99.90;;;;;;5057529;28;20162;-70
2023/03/21 11:52:37;;;;;;;1999.90;999.90;;;11.90;99.90;;;;;;5070817;28;20040;-71
2023/03/21 11:55:23;;;;;;;1999.90;999.90;;;12.00;99.90;;;;;;5053810;28;20048;-71
2023/03/21 11:58:12;;;;;;;1999.90;999.90;;;11.90;99.90;;;;;;5053497;28;20462;-71
2023/03/21 12:00:47;;;;;;;1999.90;999.90;;;11.90;99.90;;;;;;5060124;28;20048;-70
2023/03/21 12:03:15;;;;;;;1999.90;999.90;;;11.90;99.90;;;;;;5058151;28;20527;-71
2023/03/21 12:06:01;;;;;;;1999.90;999.90;;;11.80;99.90;;;;;;5044200;28;20044;-71
2023/03/21 12:08:52;;;;;;;1999.90;999.90;;;11.80;99.90;;;;;;5059033;28;20028;-71
2023/03/21 12:11:18;;;;;;;1999.90;999.90;;;11.80;99.90;;;;;;5058946;28;20040;-71
2023/03/21 12:13:53;;;;;;;1999.90;999.90;;;11.70;99.90;;;;;;5038878;28;20058;-71
2023/03/21 12:16:54;;;;;;;1999.90;999.90;;;11.60;99.90;;;;;;5062715;28;20485;-71
2023/03/21 12:19:20;;;;;;;1999.90;999.90;;;11.70;99.90;;;;;;5062619;28;20040;-71